sensor_id;sensor_type;location;lat;lon;timestamp;P1;durP1;ratioP1;P2;durP2;ratioP2
5754;SDS011;2902;42.130;24.732;2022-09-09T00:02:10;11.27;;;10.17;;
5754;SDS011;2902;42.130;24.732;2022-09-09T00:04:45;10.03;;;9.43;;
5754;SDS011;2902;42.130;24.732;2022-09-09T00:07:25;12.50;;;10.07;;
5754;SDS011;2902;42.130;24.732;2022-09-09T00:10:05;10.67;;;9.60;;
5754;SDS011;2902;42.130;24.732;2022-09-09T00:12:52;12.73;;;9.50;;
5754;SDS011;2902;42.130;24.732;2022-09-09T00:15:29;10.83;;;9.53;;
5754;SDS011;2902;42.130;24.732;2022-09-09T00:18:03;9.80;;;9.00;;
5754;SDS011;2902;42.130;24.732;2022-09-09T00:20:40;10.53;;;9.20;;
5754;SDS011;2902;42.130;24.732;2022-09-09T00:23:17;10.23;;;9.40;;
5754;SDS011;2902;42.130;24.732;2022-09-09T00:25:51;10.67;;;9.80;;
5754;SDS011;2902;42.130;24.732;2022-09-09T00:28:25;10.23;;;9.17;;
5754;SDS011;2902;42.130;24.732;2022-09-09T00:30:56;10.60;;;9.63;;
5754;SDS011;2902;42.130;24.732;2022-09-09T00:33:28;9.60;;;8.83;;
5754;SDS011;2902;42.130;24.732;2022-09-09T00:35:57;9.60;;;8.83;;
5754;SDS011;2902;42.130;24.732;2022-09-09T00:38:27;9.87;;;9.17;;
5754;SDS011;2902;42.130;24.732;2022-09-09T00:41:00;11.87;;;9.57;;
5754;SDS011;2902;42.130;24.732;2022-09-09T00:43:37;9.77;;;9.00;;
5754;SDS011;2902;42.130;24.732;2022-09-09T00:46:11;10.13;;;9.20;;
5754;SDS011;2902;42.130;24.732;2022-09-09T00:48:52;11.50;;;8.90;;
5754;SDS011;2902;42.130;24.732;2022-09-09T00:51:28;10.10;;;9.13;;
5754;SDS011;2902;42.130;24.732;2022-09-09T00:54:06;9.97;;;8.97;;
5754;SDS011;2902;42.130;24.732;2022-09-09T00:56:42;10.43;;;9.53;;
5754;SDS011;2902;42.130;24.732;2022-09-09T00:59:20;9.77;;;9.00;;
5754;SDS011;2902;42.130;24.732;2022-09-09T01:01:54;9.87;;;8.97;;
5754;SDS011;2902;42.130;24.732;2022-09-09T01:04:23;10.03;;;9.17;;
5754;SDS011;2902;42.130;24.732;2022-09-09T01:06:59;9.97;;;9.00;;
5754;SDS011;2902;42.130;24.732;2022-09-09T01:09:32;10.00;;;9.30;;
5754;SDS011;2902;42.130;24.732;2022-09-09T01:12:09;9.23;;;8.53;;
5754;SDS011;2902;42.130;24.732;2022-09-09T01:14:44;10.53;;;8.70;;
5754;SDS011;2902;42.130;24.732;2022-09-09T01:17:14;10.80;;;9.67;;
5754;SDS011;2902;42.130;24.732;2022-09-09T01:19:49;9.27;;;8.77;;
5754;SDS011;2902;42.130;24.732;2022-09-09T01:22:26;11.13;;;8.70;;
5754;SDS011;2902;42.130;24.732;2022-09-09T01:25:09;9.67;;;8.70;;
5754;SDS011;2902;42.130;24.732;2022-09-09T01:27:46;9.67;;;8.90;;
5754;SDS011;2902;42.130;24.732;2022-09-09T01:30:15;9.87;;;9.27;;
5754;SDS011;2902;42.130;24.732;2022-09-09T01:32:44;14.37;;;9.30;;
5754;SDS011;2902;42.130;24.732;2022-09-09T01:35:14;10.30;;;9.10;;
5754;SDS011;2902;42.130;24.732;2022-09-09T01:37:48;11.47;;;8.73;;
5754;SDS011;2902;42.130;24.732;2022-09-09T01:40:15;10.83;;;9.83;;
5754;SDS011;2902;42.130;24.732;2022-09-09T01:42:42;10.17;;;9.27;;
5754;SDS011;2902;42.130;24.732;2022-09-09T01:45:10;9.67;;;8.83;;
5754;SDS011;2902;42.130;24.732;2022-09-09T01:47:37;15.60;;;10.27;;
5754;SDS011;2902;42.130;24.732;2022-09-09T01:50:04;10.07;;;9.07;;
5754;SDS011;2902;42.130;24.732;2022-09-09T01:52:34;11.07;;;10.00;;
5754;SDS011;2902;42.130;24.732;2022-09-09T01:55:02;10.00;;;9.13;;
5754;SDS011;2902;42.130;24.732;2022-09-09T01:57:30;11.20;;;9.30;;
5754;SDS011;2902;42.130;24.732;2022-09-09T02:00:05;12.13;;;9.10;;
5754;SDS011;2902;42.130;24.732;2022-09-09T02:02:36;9.90;;;9.00;;
5754;SDS011;2902;42.130;24.732;2022-09-09T02:05:11;12.37;;;10.37;;
5754;SDS011;2902;42.130;24.732;2022-09-09T02:07:46;9.80;;;9.20;;
5754;SDS011;2902;42.130;24.732;2022-09-09T02:10:18;10.73;;;9.90;;
5754;SDS011;2902;42.130;24.732;2022-09-09T02:12:48;11.30;;;10.20;;
5754;SDS011;2902;42.130;24.732;2022-09-09T02:15:20;10.93;;;10.10;;
5754;SDS011;2902;42.130;24.732;2022-09-09T02:17:54;9.87;;;9.13;;
5754;SDS011;2902;42.130;24.732;2022-09-09T02:20:24;14.13;;;9.00;;
5754;SDS011;2902;42.130;24.732;2022-09-09T02:22:53;9.93;;;8.93;;
5754;SDS011;2902;42.130;24.732;2022-09-09T02:25:23;11.30;;;8.27;;
5754;SDS011;2902;42.130;24.732;2022-09-09T02:27:52;10.37;;;8.00;;
5754;SDS011;2902;42.130;24.732;2022-09-09T02:30:19;12.07;;;8.20;;
5754;SDS011;2902;42.130;24.732;2022-09-09T02:32:46;9.07;;;7.83;;
5754;SDS011;2902;42.130;24.732;2022-09-09T02:35:19;11.70;;;8.23;;
5754;SDS011;2902;42.130;24.732;2022-09-09T02:37:49;10.50;;;9.00;;
5754;SDS011;2902;42.130;24.732;2022-09-09T02:40:19;10.53;;;7.87;;
5754;SDS011;2902;42.130;24.732;2022-09-09T02:42:47;11.30;;;8.27;;
5754;SDS011;2902;42.130;24.732;2022-09-09T02:45:15;8.50;;;7.70;;
5754;SDS011;2902;42.130;24.732;2022-09-09T02:47:45;8.20;;;7.60;;
5754;SDS011;2902;42.130;24.732;2022-09-09T02:50:19;16.67;;;7.60;;
5754;SDS011;2902;42.130;24.732;2022-09-09T02:52:54;10.53;;;8.00;;
5754;SDS011;2902;42.130;24.732;2022-09-09T02:55:35;11.47;;;8.00;;
5754;SDS011;2902;42.130;24.732;2022-09-09T02:58:05;8.17;;;7.47;;
5754;SDS011;2902;42.130;24.732;2022-09-09T03:00:36;8.50;;;7.87;;
5754;SDS011;2902;42.130;24.732;2022-09-09T03:03:04;12.27;;;8.30;;
5754;SDS011;2902;42.130;24.732;2022-09-09T03:05:33;8.70;;;7.90;;
5754;SDS011;2902;42.130;24.732;2022-09-09T03:08:00;8.90;;;8.10;;
5754;SDS011;2902;42.130;24.732;2022-09-09T03:10:27;8.87;;;8.20;;
5754;SDS011;2902;42.130;24.732;2022-09-09T03:12:54;7.90;;;7.30;;
5754;SDS011;2902;42.130;24.732;2022-09-09T03:15:21;9.27;;;8.10;;
5754;SDS011;2902;42.130;24.732;2022-09-09T03:17:47;8.37;;;7.17;;
5754;SDS011;2902;42.130;24.732;2022-09-09T03:20:14;8.50;;;8.00;;
5754;SDS011;2902;42.130;24.732;2022-09-09T03:22:42;8.67;;;7.80;;
5754;SDS011;2902;42.130;24.732;2022-09-09T03:25:10;13.33;;;8.53;;
5754;SDS011;2902;42.130;24.732;2022-09-09T03:27:36;9.60;;;8.73;;
5754;SDS011;2902;42.130;24.732;2022-09-09T03:30:03;9.33;;;7.60;;
5754;SDS011;2902;42.130;24.732;2022-09-09T03:32:31;9.90;;;8.87;;
5754;SDS011;2902;42.130;24.732;2022-09-09T03:34:57;11.27;;;8.00;;
5754;SDS011;2902;42.130;24.732;2022-09-09T03:37:24;10.87;;;7.87;;
5754;SDS011;2902;42.130;24.732;2022-09-09T03:39:52;12.17;;;7.63;;
5754;SDS011;2902;42.130;24.732;2022-09-09T03:42:20;10.13;;;9.20;;
5754;SDS011;2902;42.130;24.732;2022-09-09T03:44:47;12.03;;;9.87;;
5754;SDS011;2902;42.130;24.732;2022-09-09T03:47:15;14.00;;;8.57;;
5754;SDS011;2902;42.130;24.732;2022-09-09T03:49:42;10.30;;;8.10;;
5754;SDS011;2902;42.130;24.732;2022-09-09T03:52:08;10.10;;;8.93;;
5754;SDS011;2902;42.130;24.732;2022-09-09T03:54:35;8.57;;;7.87;;
5754;SDS011;2902;42.130;24.732;2022-09-09T03:57:04;17.03;;;9.33;;
5754;SDS011;2902;42.130;24.732;2022-09-09T03:59:31;13.00;;;9.57;;
5754;SDS011;2902;42.130;24.732;2022-09-09T04:01:58;10.63;;;8.87;;
5754;SDS011;2902;42.130;24.732;2022-09-09T04:04:25;16.07;;;9.53;;
5754;SDS011;2902;42.130;24.732;2022-09-09T04:06:52;18.77;;;9.10;;
5754;SDS011;2902;42.130;24.732;2022-09-09T04:09:19;14.77;;;8.90;;
5754;SDS011;2902;42.130;24.732;2022-09-09T04:11:46;13.70;;;8.67;;
5754;SDS011;2902;42.130;24.732;2022-09-09T04:14:15;10.10;;;9.10;;
5754;SDS011;2902;42.130;24.732;2022-09-09T04:16:42;11.23;;;9.20;;
5754;SDS011;2902;42.130;24.732;2022-09-09T04:19:09;19.70;;;9.50;;
5754;SDS011;2902;42.130;24.732;2022-09-09T04:21:37;11.37;;;10.10;;
5754;SDS011;2902;42.130;24.732;2022-09-09T04:24:04;10.50;;;9.57;;
5754;SDS011;2902;42.130;24.732;2022-09-09T04:26:32;13.40;;;8.60;;
5754;SDS011;2902;42.130;24.732;2022-09-09T04:28:59;12.73;;;8.20;;
5754;SDS011;2902;42.130;24.732;2022-09-09T04:31:27;13.03;;;7.60;;
5754;SDS011;2902;42.130;24.732;2022-09-09T04:33:54;9.13;;;8.10;;
5754;SDS011;2902;42.130;24.732;2022-09-09T04:36:21;9.20;;;8.27;;
5754;SDS011;2902;42.130;24.732;2022-09-09T04:38:48;10.03;;;7.90;;
5754;SDS011;2902;42.130;24.732;2022-09-09T04:41:15;7.40;;;6.77;;
5754;SDS011;2902;42.130;24.732;2022-09-09T04:43:42;9.13;;;7.47;;
5754;SDS011;2902;42.130;24.732;2022-09-09T04:46:09;10.13;;;7.50;;
5754;SDS011;2902;42.130;24.732;2022-09-09T04:48:37;15.63;;;8.00;;
5754;SDS011;2902;42.130;24.732;2022-09-09T04:51:05;9.70;;;8.77;;
5754;SDS011;2902;42.130;24.732;2022-09-09T04:53:34;9.67;;;8.00;;
5754;SDS011;2902;42.130;24.732;2022-09-09T04:56:02;13.27;;;8.03;;
5754;SDS011;2902;42.130;24.732;2022-09-09T04:58:31;11.83;;;7.10;;
5754;SDS011;2902;42.130;24.732;2022-09-09T05:01:04;11.67;;;8.53;;
5754;SDS011;2902;42.130;24.732;2022-09-09T05:03:32;9.63;;;8.07;;
5754;SDS011;2902;42.130;24.732;2022-09-09T05:06:04;15.73;;;7.53;;
5754;SDS011;2902;42.130;24.732;2022-09-09T05:08:33;15.10;;;8.73;;
5754;SDS011;2902;42.130;24.732;2022-09-09T05:11:00;15.53;;;7.57;;
5754;SDS011;2902;42.130;24.732;2022-09-09T05:13:27;10.27;;;7.70;;
5754;SDS011;2902;42.130;24.732;2022-09-09T05:15:54;11.63;;;8.60;;
5754;SDS011;2902;42.130;24.732;2022-09-09T05:18:21;10.50;;;7.30;;
5754;SDS011;2902;42.130;24.732;2022-09-09T05:20:48;20.03;;;8.03;;
5754;SDS011;2902;42.130;24.732;2022-09-09T05:23:17;14.43;;;8.40;;
5754;SDS011;2902;42.130;24.732;2022-09-09T05:25:52;17.10;;;7.33;;
5754;SDS011;2902;42.130;24.732;2022-09-09T05:28:22;10.83;;;6.10;;
5754;SDS011;2902;42.130;24.732;2022-09-09T05:30:54;16.43;;;6.37;;
5754;SDS011;2902;42.130;24.732;2022-09-09T05:33:22;8.43;;;6.37;;
5754;SDS011;2902;42.130;24.732;2022-09-09T05:35:54;9.87;;;6.30;;
5754;SDS011;2902;42.130;24.732;2022-09-09T05:38:23;8.43;;;5.30;;
5754;SDS011;2902;42.130;24.732;2022-09-09T05:40:50;6.07;;;5.47;;
5754;SDS011;2902;42.130;24.732;2022-09-09T05:43:17;6.50;;;5.70;;
5754;SDS011;2902;42.130;24.732;2022-09-09T05:45:45;8.47;;;5.37;;
5754;SDS011;2902;42.130;24.732;2022-09-09T05:48:12;5.77;;;5.00;;
5754;SDS011;2902;42.130;24.732;2022-09-09T05:50:40;6.63;;;5.93;;
5754;SDS011;2902;42.130;24.732;2022-09-09T05:53:07;7.37;;;5.63;;
5754;SDS011;2902;42.130;24.732;2022-09-09T05:55:36;5.97;;;5.13;;
5754;SDS011;2902;42.130;24.732;2022-09-09T05:58:02;7.03;;;4.83;;
5754;SDS011;2902;42.130;24.732;2022-09-09T06:00:29;5.77;;;5.23;;
5754;SDS011;2902;42.130;24.732;2022-09-09T06:02:57;14.97;;;6.47;;
5754;SDS011;2902;42.130;24.732;2022-09-09T06:05:23;10.43;;;5.37;;
5754;SDS011;2902;42.130;24.732;2022-09-09T06:07:52;5.40;;;4.90;;
5754;SDS011;2902;42.130;24.732;2022-09-09T06:10:19;21.30;;;5.97;;
5754;SDS011;2902;42.130;24.732;2022-09-09T06:12:47;7.83;;;4.50;;
5754;SDS011;2902;42.130;24.732;2022-09-09T06:15:14;13.23;;;5.73;;
5754;SDS011;2902;42.130;24.732;2022-09-09T06:17:42;6.63;;;5.00;;
5754;SDS011;2902;42.130;24.732;2022-09-09T06:20:10;9.93;;;5.10;;
5754;SDS011;2902;42.130;24.732;2022-09-09T06:22:39;6.30;;;5.60;;
5754;SDS011;2902;42.130;24.732;2022-09-09T06:25:06;9.97;;;6.07;;
5754;SDS011;2902;42.130;24.732;2022-09-09T06:27:34;23.23;;;8.53;;
5754;SDS011;2902;42.130;24.732;2022-09-09T06:30:02;9.53;;;4.60;;
5754;SDS011;2902;42.130;24.732;2022-09-09T06:32:29;9.33;;;5.27;;
5754;SDS011;2902;42.130;24.732;2022-09-09T06:35:00;8.13;;;5.63;;
5754;SDS011;2902;42.130;24.732;2022-09-09T06:37:27;11.07;;;5.47;;
5754;SDS011;2902;42.130;24.732;2022-09-09T06:39:54;11.23;;;5.23;;
5754;SDS011;2902;42.130;24.732;2022-09-09T06:42:21;4.53;;;4.03;;
5754;SDS011;2902;42.130;24.732;2022-09-09T06:44:48;5.17;;;4.57;;
5754;SDS011;2902;42.130;24.732;2022-09-09T06:47:16;8.63;;;4.47;;
5754;SDS011;2902;42.130;24.732;2022-09-09T06:49:42;8.30;;;4.77;;
5754;SDS011;2902;42.130;24.732;2022-09-09T06:52:09;4.90;;;4.50;;
5754;SDS011;2902;42.130;24.732;2022-09-09T06:54:36;9.03;;;4.90;;
5754;SDS011;2902;42.130;24.732;2022-09-09T06:57:02;11.40;;;5.13;;
5754;SDS011;2902;42.130;24.732;2022-09-09T06:59:32;7.17;;;4.80;;
5754;SDS011;2902;42.130;24.732;2022-09-09T07:01:58;5.63;;;4.43;;
5754;SDS011;2902;42.130;24.732;2022-09-09T07:04:27;5.97;;;4.73;;
5754;SDS011;2902;42.130;24.732;2022-09-09T07:06:54;7.50;;;4.90;;
5754;SDS011;2902;42.130;24.732;2022-09-09T07:09:21;6.93;;;4.77;;
5754;SDS011;2902;42.130;24.732;2022-09-09T07:11:49;14.90;;;6.03;;
5754;SDS011;2902;42.130;24.732;2022-09-09T07:14:17;15.63;;;5.10;;
5754;SDS011;2902;42.130;24.732;2022-09-09T07:16:45;5.83;;;5.07;;
5754;SDS011;2902;42.130;24.732;2022-09-09T07:19:12;9.03;;;4.70;;
5754;SDS011;2902;42.130;24.732;2022-09-09T07:21:41;6.53;;;5.10;;
5754;SDS011;2902;42.130;24.732;2022-09-09T07:24:09;8.73;;;4.77;;
5754;SDS011;2902;42.130;24.732;2022-09-09T07:26:36;4.97;;;4.47;;
5754;SDS011;2902;42.130;24.732;2022-09-09T07:29:04;8.90;;;4.73;;
5754;SDS011;2902;42.130;24.732;2022-09-09T07:31:31;10.27;;;4.93;;
5754;SDS011;2902;42.130;24.732;2022-09-09T07:34:02;5.17;;;4.40;;
5754;SDS011;2902;42.130;24.732;2022-09-09T07:36:31;6.63;;;4.43;;
5754;SDS011;2902;42.130;24.732;2022-09-09T07:39:01;5.40;;;4.57;;
5754;SDS011;2902;42.130;24.732;2022-09-09T07:41:30;5.97;;;4.23;;
5754;SDS011;2902;42.130;24.732;2022-09-09T07:43:59;7.33;;;5.20;;
5754;SDS011;2902;42.130;24.732;2022-09-09T07:46:30;7.43;;;5.50;;
5754;SDS011;2902;42.130;24.732;2022-09-09T07:48:57;6.77;;;4.13;;
5754;SDS011;2902;42.130;24.732;2022-09-09T07:51:24;5.67;;;4.40;;
5754;SDS011;2902;42.130;24.732;2022-09-09T07:53:52;14.33;;;4.77;;
5754;SDS011;2902;42.130;24.732;2022-09-09T07:56:22;4.57;;;4.20;;
5754;SDS011;2902;42.130;24.732;2022-09-09T07:58:49;9.60;;;4.40;;
5754;SDS011;2902;42.130;24.732;2022-09-09T08:01:17;4.50;;;4.07;;
5754;SDS011;2902;42.130;24.732;2022-09-09T08:03:46;6.47;;;4.30;;
5754;SDS011;2902;42.130;24.732;2022-09-09T08:06:18;4.67;;;4.13;;
5754;SDS011;2902;42.130;24.732;2022-09-09T08:08:45;5.37;;;3.63;;
5754;SDS011;2902;42.130;24.732;2022-09-09T08:11:16;4.43;;;3.77;;
5754;SDS011;2902;42.130;24.732;2022-09-09T08:13:45;4.53;;;4.13;;
5754;SDS011;2902;42.130;24.732;2022-09-09T08:16:13;9.23;;;4.17;;
5754;SDS011;2902;42.130;24.732;2022-09-09T08:18:41;10.13;;;4.03;;
5754;SDS011;2902;42.130;24.732;2022-09-09T08:21:09;7.67;;;4.10;;
5754;SDS011;2902;42.130;24.732;2022-09-09T08:23:38;5.90;;;3.90;;
5754;SDS011;2902;42.130;24.732;2022-09-09T08:26:06;9.57;;;3.80;;
5754;SDS011;2902;42.130;24.732;2022-09-09T08:28:36;4.43;;;4.13;;
5754;SDS011;2902;42.130;24.732;2022-09-09T08:31:11;5.00;;;3.80;;
5754;SDS011;2902;42.130;24.732;2022-09-09T08:33:40;5.03;;;3.90;;
5754;SDS011;2902;42.130;24.732;2022-09-09T08:36:08;4.87;;;3.90;;
5754;SDS011;2902;42.130;24.732;2022-09-09T08:38:37;7.83;;;4.77;;
5754;SDS011;2902;42.130;24.732;2022-09-09T08:41:07;5.37;;;4.33;;
5754;SDS011;2902;42.130;24.732;2022-09-09T08:43:46;5.70;;;3.93;;
5754;SDS011;2902;42.130;24.732;2022-09-09T08:46:19;4.63;;;4.20;;
5754;SDS011;2902;42.130;24.732;2022-09-09T08:48:56;5.10;;;4.80;;
5754;SDS011;2902;42.130;24.732;2022-09-09T08:51:28;6.80;;;4.10;;
5754;SDS011;2902;42.130;24.732;2022-09-09T08:53:58;6.37;;;4.10;;
5754;SDS011;2902;42.130;24.732;2022-09-09T08:56:28;5.33;;;4.37;;
5754;SDS011;2902;42.130;24.732;2022-09-09T08:58:59;7.00;;;4.67;;
5754;SDS011;2902;42.130;24.732;2022-09-09T09:04:27;4.57;;;4.27;;
5754;SDS011;2902;42.130;24.732;2022-09-09T09:07:13;7.30;;;4.33;;
5754;SDS011;2902;42.130;24.732;2022-09-09T09:09:55;5.47;;;4.43;;
5754;SDS011;2902;42.130;24.732;2022-09-09T09:12:28;6.27;;;4.87;;
5754;SDS011;2902;42.130;24.732;2022-09-09T09:14:59;8.10;;;4.93;;
5754;SDS011;2902;42.130;24.732;2022-09-09T09:17:28;8.97;;;4.67;;
5754;SDS011;2902;42.130;24.732;2022-09-09T09:19:58;7.17;;;5.23;;
5754;SDS011;2902;42.130;24.732;2022-09-09T09:22:26;8.57;;;6.43;;
5754;SDS011;2902;42.130;24.732;2022-09-09T09:25:00;7.33;;;4.80;;
5754;SDS011;2902;42.130;24.732;2022-09-09T09:27:32;5.17;;;4.80;;
5754;SDS011;2902;42.130;24.732;2022-09-09T09:30:02;8.50;;;5.20;;
5754;SDS011;2902;42.130;24.732;2022-09-09T09:32:42;5.60;;;4.70;;
5754;SDS011;2902;42.130;24.732;2022-09-09T09:35:13;7.50;;;5.17;;
5754;SDS011;2902;42.130;24.732;2022-09-09T09:37:40;8.40;;;5.23;;
5754;SDS011;2902;42.130;24.732;2022-09-09T09:40:09;6.53;;;5.57;;
5754;SDS011;2902;42.130;24.732;2022-09-09T09:42:37;7.23;;;6.53;;
5754;SDS011;2902;42.130;24.732;2022-09-09T09:45:14;6.70;;;6.00;;
5754;SDS011;2902;42.130;24.732;2022-09-09T09:47:57;9.87;;;5.67;;
5754;SDS011;2902;42.130;24.732;2022-09-09T09:50:24;26.57;;;17.43;;
5754;SDS011;2902;42.130;24.732;2022-09-09T09:52:55;16.63;;;12.50;;
5754;SDS011;2902;42.130;24.732;2022-09-09T09:55:23;7.87;;;5.13;;
5754;SDS011;2902;42.130;24.732;2022-09-09T09:57:51;7.73;;;6.37;;
5754;SDS011;2902;42.130;24.732;2022-09-09T10:00:19;5.90;;;5.47;;
5754;SDS011;2902;42.130;24.732;2022-09-09T10:02:49;6.00;;;5.40;;
5754;SDS011;2902;42.130;24.732;2022-09-09T10:05:18;10.77;;;5.93;;
5754;SDS011;2902;42.130;24.732;2022-09-09T10:07:46;8.03;;;6.10;;
5754;SDS011;2902;42.130;24.732;2022-09-09T10:10:15;6.53;;;5.97;;
5754;SDS011;2902;42.130;24.732;2022-09-09T10:12:53;13.07;;;6.27;;
5754;SDS011;2902;42.130;24.732;2022-09-09T10:15:30;6.80;;;5.87;;
5754;SDS011;2902;42.130;24.732;2022-09-09T10:18:12;6.00;;;5.60;;
5754;SDS011;2902;42.130;24.732;2022-09-09T10:21:00;6.83;;;6.17;;
5754;SDS011;2902;42.130;24.732;2022-09-09T10:23:38;8.27;;;6.77;;
5754;SDS011;2902;42.130;24.732;2022-09-09T10:26:24;11.83;;;6.30;;
5754;SDS011;2902;42.130;24.732;2022-09-09T10:29:13;6.40;;;5.80;;
5754;SDS011;2902;42.130;24.732;2022-09-09T10:31:53;6.77;;;6.17;;
5754;SDS011;2902;42.130;24.732;2022-09-09T10:34:34;8.90;;;5.93;;
5754;SDS011;2902;42.130;24.732;2022-09-09T10:37:15;9.30;;;6.20;;
5754;SDS011;2902;42.130;24.732;2022-09-09T10:39:48;6.07;;;5.67;;
5754;SDS011;2902;42.130;24.732;2022-09-09T10:42:23;6.27;;;5.33;;
5754;SDS011;2902;42.130;24.732;2022-09-09T10:45:00;6.70;;;6.10;;
5754;SDS011;2902;42.130;24.732;2022-09-09T10:47:44;8.03;;;5.57;;
5754;SDS011;2902;42.130;24.732;2022-09-09T10:56:42;7.40;;;6.20;;
5754;SDS011;2902;42.130;24.732;2022-09-09T10:59:16;6.70;;;6.20;;
5754;SDS011;2902;42.130;24.732;2022-09-09T11:01:49;8.60;;;6.27;;
5754;SDS011;2902;42.130;24.732;2022-09-09T11:04:21;9.97;;;6.40;;
5754;SDS011;2902;42.130;24.732;2022-09-09T11:06:51;6.93;;;6.00;;
5754;SDS011;2902;42.130;24.732;2022-09-09T11:09:23;6.50;;;5.97;;
5754;SDS011;2902;42.130;24.732;2022-09-09T11:11:54;7.40;;;5.93;;
5754;SDS011;2902;42.130;24.732;2022-09-09T11:14:24;9.93;;;6.23;;
5754;SDS011;2902;42.130;24.732;2022-09-09T11:16:56;6.50;;;6.00;;
5754;SDS011;2902;42.130;24.732;2022-09-09T11:19:27;7.17;;;6.57;;
5754;SDS011;2902;42.130;24.732;2022-09-09T11:22:00;6.87;;;6.17;;
5754;SDS011;2902;42.130;24.732;2022-09-09T11:24:32;6.13;;;5.53;;
5754;SDS011;2902;42.130;24.732;2022-09-09T11:27:06;7.60;;;5.50;;
5754;SDS011;2902;42.130;24.732;2022-09-09T11:29:46;5.83;;;5.40;;
5754;SDS011;2902;42.130;24.732;2022-09-09T11:32:39;8.50;;;5.10;;
5754;SDS011;2902;42.130;24.732;2022-09-09T11:35:22;9.17;;;5.83;;
5754;SDS011;2902;42.130;24.732;2022-09-09T11:38:08;5.70;;;5.03;;
5754;SDS011;2902;42.130;24.732;2022-09-09T11:40:47;5.97;;;5.63;;
5754;SDS011;2902;42.130;24.732;2022-09-09T11:43:24;7.70;;;5.37;;
5754;SDS011;2902;42.130;24.732;2022-09-09T11:45:54;9.13;;;6.37;;
5754;SDS011;2902;42.130;24.732;2022-09-09T11:48:26;6.00;;;5.53;;
5754;SDS011;2902;42.130;24.732;2022-09-09T11:50:59;6.83;;;5.03;;
5754;SDS011;2902;42.130;24.732;2022-09-09T11:53:30;5.47;;;5.07;;
5754;SDS011;2902;42.130;24.732;2022-09-09T11:56:03;6.30;;;5.57;;
5754;SDS011;2902;42.130;24.732;2022-09-09T11:58:39;5.73;;;5.10;;
5754;SDS011;2902;42.130;24.732;2022-09-09T12:01:27;9.00;;;5.80;;
5754;SDS011;2902;42.130;24.732;2022-09-09T12:04:02;5.53;;;5.20;;
5754;SDS011;2902;42.130;24.732;2022-09-09T12:06:41;5.80;;;5.43;;
5754;SDS011;2902;42.130;24.732;2022-09-09T12:09:15;9.40;;;5.07;;
5754;SDS011;2902;42.130;24.732;2022-09-09T12:11:50;6.20;;;5.03;;
5754;SDS011;2902;42.130;24.732;2022-09-09T12:14:21;5.10;;;4.80;;
5754;SDS011;2902;42.130;24.732;2022-09-09T12:17:08;9.67;;;6.23;;
5754;SDS011;2902;42.130;24.732;2022-09-09T12:19:36;7.80;;;5.03;;
5754;SDS011;2902;42.130;24.732;2022-09-09T12:22:03;8.40;;;5.30;;
5754;SDS011;2902;42.130;24.732;2022-09-09T12:24:41;5.50;;;5.03;;
5754;SDS011;2902;42.130;24.732;2022-09-09T12:27:16;9.50;;;5.50;;
5754;SDS011;2902;42.130;24.732;2022-09-09T12:29:49;5.27;;;4.93;;
5754;SDS011;2902;42.130;24.732;2022-09-09T12:32:24;5.60;;;5.10;;
5754;SDS011;2902;42.130;24.732;2022-09-09T12:34:54;13.80;;;6.47;;
5754;SDS011;2902;42.130;24.732;2022-09-09T12:37:27;7.37;;;5.83;;
5754;SDS011;2902;42.130;24.732;2022-09-09T12:39:58;7.67;;;5.40;;
5754;SDS011;2902;42.130;24.732;2022-09-09T12:42:29;7.13;;;5.50;;
5754;SDS011;2902;42.130;24.732;2022-09-09T12:44:58;7.30;;;5.77;;
5754;SDS011;2902;42.130;24.732;2022-09-09T12:47:33;6.43;;;5.67;;
5754;SDS011;2902;42.130;24.732;2022-09-09T12:50:10;7.03;;;5.47;;
5754;SDS011;2902;42.130;24.732;2022-09-09T12:52:42;5.90;;;5.50;;
5754;SDS011;2902;42.130;24.732;2022-09-09T12:55:15;6.17;;;5.53;;
5754;SDS011;2902;42.130;24.732;2022-09-09T12:57:45;7.40;;;5.63;;
5754;SDS011;2902;42.130;24.732;2022-09-09T13:00:14;5.10;;;4.80;;
5754;SDS011;2902;42.130;24.732;2022-09-09T13:02:47;6.93;;;5.37;;
5754;SDS011;2902;42.130;24.732;2022-09-09T13:05:17;7.27;;;5.00;;
5754;SDS011;2902;42.130;24.732;2022-09-09T13:07:46;6.07;;;5.50;;
5754;SDS011;2902;42.130;24.732;2022-09-09T13:10:13;8.73;;;5.37;;
5754;SDS011;2902;42.130;24.732;2022-09-09T13:12:45;6.37;;;5.77;;
5754;SDS011;2902;42.130;24.732;2022-09-09T13:15:14;5.80;;;5.30;;
5754;SDS011;2902;42.130;24.732;2022-09-09T13:17:54;12.53;;;5.43;;
5754;SDS011;2902;42.130;24.732;2022-09-09T13:20:22;9.27;;;4.93;;
5754;SDS011;2902;42.130;24.732;2022-09-09T13:22:50;7.60;;;5.33;;
5754;SDS011;2902;42.130;24.732;2022-09-09T13:25:23;9.50;;;5.37;;
5754;SDS011;2902;42.130;24.732;2022-09-09T13:27:54;15.53;;;6.23;;
5754;SDS011;2902;42.130;24.732;2022-09-09T13:30:24;8.97;;;5.67;;
5754;SDS011;2902;42.130;24.732;2022-09-09T13:32:59;8.23;;;5.70;;
5754;SDS011;2902;42.130;24.732;2022-09-09T13:35:31;13.60;;;5.30;;
5754;SDS011;2902;42.130;24.732;2022-09-09T13:37:58;8.53;;;5.10;;
5754;SDS011;2902;42.130;24.732;2022-09-09T13:40:32;7.07;;;5.77;;
5754;SDS011;2902;42.130;24.732;2022-09-09T13:43:00;7.47;;;5.70;;
5754;SDS011;2902;42.130;24.732;2022-09-09T13:45:28;6.73;;;6.10;;
5754;SDS011;2902;42.130;24.732;2022-09-09T13:47:55;7.73;;;5.90;;
5754;SDS011;2902;42.130;24.732;2022-09-09T13:50:23;12.80;;;5.87;;
5754;SDS011;2902;42.130;24.732;2022-09-09T13:52:51;7.77;;;5.87;;
5754;SDS011;2902;42.130;24.732;2022-09-09T13:55:20;8.77;;;5.60;;
5754;SDS011;2902;42.130;24.732;2022-09-09T13:57:52;12.47;;;5.63;;
5754;SDS011;2902;42.130;24.732;2022-09-09T14:00:21;6.20;;;5.70;;
5754;SDS011;2902;42.130;24.732;2022-09-09T14:02:49;10.83;;;6.00;;
5754;SDS011;2902;42.130;24.732;2022-09-09T14:05:17;6.37;;;5.77;;
5754;SDS011;2902;42.130;24.732;2022-09-09T14:07:44;7.93;;;6.17;;
5754;SDS011;2902;42.130;24.732;2022-09-09T14:10:11;15.87;;;6.33;;
5754;SDS011;2902;42.130;24.732;2022-09-09T14:12:38;6.33;;;5.67;;
5754;SDS011;2902;42.130;24.732;2022-09-09T14:15:06;7.23;;;6.50;;
5754;SDS011;2902;42.130;24.732;2022-09-09T14:17:37;19.80;;;7.27;;
5754;SDS011;2902;42.130;24.732;2022-09-09T14:20:04;16.47;;;7.60;;
5754;SDS011;2902;42.130;24.732;2022-09-09T14:22:33;7.80;;;7.00;;
5754;SDS011;2902;42.130;24.732;2022-09-09T14:25:00;13.73;;;7.20;;
5754;SDS011;2902;42.130;24.732;2022-09-09T14:27:27;19.63;;;6.93;;
5754;SDS011;2902;42.130;24.732;2022-09-09T14:29:55;10.77;;;6.83;;
5754;SDS011;2902;42.130;24.732;2022-09-09T14:32:22;12.93;;;6.70;;
5754;SDS011;2902;42.130;24.732;2022-09-09T14:34:50;10.40;;;6.93;;
5754;SDS011;2902;42.130;24.732;2022-09-09T14:37:17;24.33;;;7.90;;
5754;SDS011;2902;42.130;24.732;2022-09-09T14:39:45;7.60;;;6.40;;
5754;SDS011;2902;42.130;24.732;2022-09-09T14:42:12;24.67;;;7.00;;
5754;SDS011;2902;42.130;24.732;2022-09-09T14:44:39;14.97;;;7.10;;
5754;SDS011;2902;42.130;24.732;2022-09-09T14:47:06;11.83;;;6.73;;
5754;SDS011;2902;42.130;24.732;2022-09-09T14:49:34;13.87;;;7.27;;
5754;SDS011;2902;42.130;24.732;2022-09-09T14:52:02;9.93;;;6.33;;
5754;SDS011;2902;42.130;24.732;2022-09-09T14:54:29;7.10;;;6.30;;
5754;SDS011;2902;42.130;24.732;2022-09-09T14:56:57;11.80;;;6.43;;
5754;SDS011;2902;42.130;24.732;2022-09-09T14:59:24;17.30;;;7.07;;
5754;SDS011;2902;42.130;24.732;2022-09-09T15:01:52;10.93;;;8.17;;
5754;SDS011;2902;42.130;24.732;2022-09-09T15:04:18;13.53;;;7.97;;
5754;SDS011;2902;42.130;24.732;2022-09-09T15:06:45;20.17;;;7.13;;
5754;SDS011;2902;42.130;24.732;2022-09-09T15:09:15;9.03;;;6.77;;
5754;SDS011;2902;42.130;24.732;2022-09-09T15:11:41;19.37;;;7.90;;
5754;SDS011;2902;42.130;24.732;2022-09-09T15:14:09;10.53;;;7.47;;
5754;SDS011;2902;42.130;24.732;2022-09-09T15:16:37;8.13;;;7.37;;
5754;SDS011;2902;42.130;24.732;2022-09-09T15:19:05;11.67;;;7.30;;
5754;SDS011;2902;42.130;24.732;2022-09-09T15:21:32;7.77;;;7.00;;
5754;SDS011;2902;42.130;24.732;2022-09-09T15:24:01;8.63;;;7.73;;
5754;SDS011;2902;42.130;24.732;2022-09-09T15:26:29;8.90;;;7.80;;